sensor_id;sensor_type;location;lat;lon;timestamp;pressure;altitude;pressure_sealevel;temperature;humidity
21504;BME280;10913;51.992;9.228;2023-07-08T00:00:26;100676.91;;;18.35;86.13
21504;BME280;10913;51.992;9.228;2023-07-08T00:02:52;100677.94;;;18.31;86.17
21504;BME280;10913;51.992;9.228;2023-07-08T00:05:20;100686.91;;;18.28;85.85
21504;BME280;10913;51.992;9.228;2023-07-08T00:07:46;100681.72;;;18.23;85.50
21504;BME280;10913;51.992;9.228;2023-07-08T00:10:24;100669.34;;;18.19;86.07
21504;BME280;10913;51.992;9.228;2023-07-08T00:12:52;100664.13;;;18.16;85.87
21504;BME280;10913;51.992;9.228;2023-07-08T00:15:30;100663.34;;;18.13;86.39
21504;BME280;10913;51.992;9.228;2023-07-08T00:17:57;100658.13;;;18.08;86.77
21504;BME280;10913;51.992;9.228;2023-07-08T00:20:31;100659.09;;;18.06;87.07
21504;BME280;10913;51.992;9.228;2023-07-08T00:22:57;100655.69;;;18.01;87.31
21504;BME280;10913;51.992;9.228;2023-07-08T00:25:25;100657.63;;;17.97;87.48
21504;BME280;10913;51.992;9.228;2023-07-08T00:27:51;100645.31;;;17.92;87.42
21504;BME280;10913;51.992;9.228;2023-07-08T00:30:29;100651.56;;;17.90;87.59
21504;BME280;10913;51.992;9.228;2023-07-08T00:32:56;100656.09;;;17.88;87.33
21504;BME280;10913;51.992;9.228;2023-07-08T00:35:32;100653.47;;;17.87;87.39
21504;BME280;10913;51.992;9.228;2023-07-08T00:37:58;100657.16;;;17.83;87.50
21504;BME280;10913;51.992;9.228;2023-07-08T00:40:31;100651.09;;;17.78;87.45
21504;BME280;10913;51.992;9.228;2023-07-08T00:43:00;100644.97;;;17.74;87.52
21504;BME280;10913;51.992;9.228;2023-07-08T00:48:28;100637.22;;;17.65;87.84
21504;BME280;10913;51.992;9.228;2023-07-08T00:50:51;100637.22;;;17.64;87.84
21504;BME280;10913;51.992;9.228;2023-07-08T00:53:42;100636.38;;;17.62;87.89
21504;BME280;10913;51.992;9.228;2023-07-08T00:59:18;100634.78;;;17.56;87.50
21504;BME280;10913;51.992;9.228;2023-07-08T01:01:45;100635.84;;;17.50;87.71
21504;BME280;10913;51.992;9.228;2023-07-08T01:04:20;100624.47;;;17.44;88.09
21504;BME280;10913;51.992;9.228;2023-07-08T01:06:50;100624.53;;;17.41;88.25
21504;BME280;10913;51.992;9.228;2023-07-08T01:09:24;100629.13;;;17.37;88.21
21504;BME280;10913;51.992;9.228;2023-07-08T01:11:53;100628.38;;;17.32;88.59
21504;BME280;10913;51.992;9.228;2023-07-08T01:14:20;100632.97;;;17.27;88.72
21504;BME280;10913;51.992;9.228;2023-07-08T01:16:47;100634.06;;;17.20;89.25
21504;BME280;10913;51.992;9.228;2023-07-08T01:19:17;100635.09;;;17.16;89.31
21504;BME280;10913;51.992;9.228;2023-07-08T01:21:57;100633.31;;;17.15;88.96
21504;BME280;10913;51.992;9.228;2023-07-08T01:24:27;100628.13;;;17.10;88.82
21504;BME280;10913;51.992;9.228;2023-07-08T01:26:53;100624.56;;;17.10;88.92
21504;BME280;10913;51.992;9.228;2023-07-08T01:29:19;100625.56;;;17.06;89.38
21504;BME280;10913;51.992;9.228;2023-07-08T01:31:44;100628.28;;;17.04;89.11
21504;BME280;10913;51.992;9.228;2023-07-08T01:34:14;100627.41;;;17.04;89.31
21504;BME280;10913;51.992;9.228;2023-07-08T01:36:43;100622.06;;;17.04;89.09
21504;BME280;10913;51.992;9.228;2023-07-08T01:39:12;100624.75;;;17.02;89.31
21504;BME280;10913;51.992;9.228;2023-07-08T01:41:38;100623.06;;;17.00;89.34
21504;BME280;10913;51.992;9.228;2023-07-08T01:44:04;100623.97;;;16.99;89.21
21504;BME280;10913;51.992;9.228;2023-07-08T01:46:29;100617.91;;;16.94;89.63
21504;BME280;10913;51.992;9.228;2023-07-08T01:48:57;100615.31;;;16.91;89.80
21504;BME280;10913;51.992;9.228;2023-07-08T01:51:25;100614.53;;;16.87;89.85
21504;BME280;10913;51.992;9.228;2023-07-08T01:53:52;100613.69;;;16.85;89.63
21504;BME280;10913;51.992;9.228;2023-07-08T01:56:17;100614.63;;;16.82;89.72
21504;BME280;10913;51.992;9.228;2023-07-08T01:58:43;100613.81;;;16.80;89.65
21504;BME280;10913;51.992;9.228;2023-07-08T02:01:09;100621.91;;;16.77;90.23
21504;BME280;10913;51.992;9.228;2023-07-08T02:03:35;100620.25;;;16.73;90.58
21504;BME280;10913;51.992;9.228;2023-07-08T02:06:02;100618.50;;;16.72;90.41
21504;BME280;10913;51.992;9.228;2023-07-08T02:08:27;100622.16;;;16.68;90.39
21504;BME280;10913;51.992;9.228;2023-07-08T02:10:56;100621.38;;;16.62;90.15
21504;BME280;10913;51.992;9.228;2023-07-08T02:13:22;100615.31;;;16.57;90.43
21504;BME280;10913;51.992;9.228;2023-07-08T02:15:48;100609.19;;;16.53;90.86
21504;BME280;10913;51.992;9.228;2023-07-08T02:18:14;100611.03;;;16.51;90.52
21504;BME280;10913;51.992;9.228;2023-07-08T02:20:39;100607.50;;;16.49;90.65
21504;BME280;10913;51.992;9.228;2023-07-08T02:23:05;100607.53;;;16.47;90.49
21504;BME280;10913;51.992;9.228;2023-07-08T02:25:30;100604.88;;;16.47;90.57
21504;BME280;10913;51.992;9.228;2023-07-08T02:27:56;100608.50;;;16.45;90.98
21504;BME280;10913;51.992;9.228;2023-07-08T02:30:23;100605.91;;;16.42;91.14
21504;BME280;10913;51.992;9.228;2023-07-08T02:32:48;100607.69;;;16.41;91.19
21504;BME280;10913;51.992;9.228;2023-07-08T02:35:21;100594.47;;;16.38;90.89
21504;BME280;10913;51.992;9.228;2023-07-08T02:37:47;100598.09;;;16.36;91.19
21504;BME280;10913;51.992;9.228;2023-07-08T02:40:12;100596.34;;;16.35;91.15
21504;BME280;10913;51.992;9.228;2023-07-08T02:42:39;100601.75;;;16.32;91.12
21504;BME280;10913;51.992;9.228;2023-07-08T02:45:05;100596.47;;;16.29;91.18
21504;BME280;10913;51.992;9.228;2023-07-08T02:47:30;100601.88;;;16.26;91.41
21504;BME280;10913;51.992;9.228;2023-07-08T02:49:56;100603.78;;;16.20;91.65
21504;BME280;10913;51.992;9.228;2023-07-08T02:52:21;100598.56;;;16.17;92.06
21504;BME280;10913;51.992;9.228;2023-07-08T02:54:46;100598.63;;;16.14;91.88
21504;BME280;10913;51.992;9.228;2023-07-08T02:57:12;100600.44;;;16.12;91.81
21504;BME280;10913;51.992;9.228;2023-07-08T02:59:37;100602.28;;;16.10;92.06
21504;BME280;10913;51.992;9.228;2023-07-08T03:02:03;100608.50;;;16.09;92.04
21504;BME280;10913;51.992;9.228;2023-07-08T03:04:29;100611.19;;;16.09;91.74
21504;BME280;10913;51.992;9.228;2023-07-08T03:06:55;100608.53;;;16.08;91.85
21504;BME280;10913;51.992;9.228;2023-07-08T03:09:20;100605.91;;;16.06;91.63
21504;BME280;10913;51.992;9.228;2023-07-08T03:11:46;100603.25;;;16.06;91.92
21504;BME280;10913;51.992;9.228;2023-07-08T03:14:11;100606.91;;;16.02;92.36
21504;BME280;10913;51.992;9.228;2023-07-08T03:16:37;100602.41;;;16.04;92.24
21504;BME280;10913;51.992;9.228;2023-07-08T03:19:02;100598.00;;;16.03;92.50
21504;BME280;10913;51.992;9.228;2023-07-08T03:21:28;100602.47;;;16.01;92.86
21504;BME280;10913;51.992;9.228;2023-07-08T03:23:53;100604.31;;;15.99;92.63
21504;BME280;10913;51.992;9.228;2023-07-08T03:26:21;100601.75;;;15.96;92.65
21504;BME280;10913;51.992;9.228;2023-07-08T03:28:48;100594.69;;;15.94;92.47
21504;BME280;10913;51.992;9.228;2023-07-08T03:31:14;100597.38;;;15.92;92.72
21504;BME280;10913;51.992;9.228;2023-07-08T03:33:39;100599.22;;;15.90;92.86
21504;BME280;10913;51.992;9.228;2023-07-08T03:36:11;100611.69;;;15.88;92.60
21504;BME280;10913;51.992;9.228;2023-07-08T03:38:37;100606.34;;;15.88;92.26
21504;BME280;10913;51.992;9.228;2023-07-08T03:41:03;100602.78;;;15.89;92.82
21504;BME280;10913;51.992;9.228;2023-07-08T03:43:29;100611.69;;;15.88;92.70
21504;BME280;10913;51.992;9.228;2023-07-08T03:45:54;100612.59;;;15.87;92.80
21504;BME280;10913;51.992;9.228;2023-07-08T03:48:19;100610.88;;;15.84;93.03
21504;BME280;10913;51.992;9.228;2023-07-08T03:50:45;100607.38;;;15.82;92.88
21504;BME280;10913;51.992;9.228;2023-07-08T03:53:10;100609.16;;;15.82;93.05
21504;BME280;10913;51.992;9.228;2023-07-08T03:55:35;100606.56;;;15.79;93.34
21504;BME280;10913;51.992;9.228;2023-07-08T03:58:01;100606.63;;;15.77;93.87
21504;BME280;10913;51.992;9.228;2023-07-08T04:00:26;100610.09;;;15.79;93.69
21504;BME280;10913;51.992;9.228;2023-07-08T04:02:51;100610.97;;;15.80;93.77
21504;BME280;10913;51.992;9.228;2023-07-08T04:05:22;100609.19;;;15.80;93.93
21504;BME280;10913;51.992;9.228;2023-07-08T04:07:48;100606.50;;;15.82;93.86
21504;BME280;10913;51.992;9.228;2023-07-08T04:10:14;100613.56;;;15.83;93.93
21504;BME280;10913;51.992;9.228;2023-07-08T04:12:40;100610.00;;;15.84;93.53
21504;BME280;10913;51.992;9.228;2023-07-08T04:15:10;100610.00;;;15.84;94.14
21504;BME280;10913;51.992;9.228;2023-07-08T04:17:41;100607.31;;;15.85;94.19
21504;BME280;10913;51.992;9.228;2023-07-08T04:20:08;100612.56;;;15.89;94.27
21504;BME280;10913;51.992;9.228;2023-07-08T04:22:36;100614.31;;;15.90;94.14
21504;BME280;10913;51.992;9.228;2023-07-08T04:25:01;100603.59;;;15.93;94.25
21504;BME280;10913;51.992;9.228;2023-07-08T04:27:29;100607.97;;;15.95;94.47
21504;BME280;10913;51.992;9.228;2023-07-08T04:29:54;100606.97;;;15.99;94.27
21504;BME280;10913;51.992;9.228;2023-07-08T04:32:20;100608.66;;;16.03;93.92
21504;BME280;10913;51.992;9.228;2023-07-08T04:34:45;100620.16;;;16.05;94.51
21504;BME280;10913;51.992;9.228;2023-07-08T04:37:11;100622.75;;;16.08;94.51
21504;BME280;10913;51.992;9.228;2023-07-08T04:39:37;100629.78;;;16.12;94.27
21504;BME280;10913;51.992;9.228;2023-07-08T04:42:02;100631.44;;;16.16;94.24
21504;BME280;10913;51.992;9.228;2023-07-08T04:44:28;100632.19;;;16.22;94.20
21504;BME280;10913;51.992;9.228;2023-07-08T04:46:56;100627.59;;;16.28;93.70
21504;BME280;10913;51.992;9.228;2023-07-08T04:49:22;100632.78;;;16.34;93.81
21504;BME280;10913;51.992;9.228;2023-07-08T04:51:48;100630.84;;;16.39;94.06
21504;BME280;10913;51.992;9.228;2023-07-08T04:54:13;100628.09;;;16.44;94.29
21504;BME280;10913;51.992;9.228;2023-07-08T04:56:43;100627.09;;;16.48;94.04
21504;BME280;10913;51.992;9.228;2023-07-08T04:59:11;100636.69;;;16.55;94.34
21504;BME280;10913;51.992;9.228;2023-07-08T05:01:37;100623.22;;;16.60;93.77
21504;BME280;10913;51.992;9.228;2023-07-08T05:04:03;100627.56;;;16.65;94.42
21504;BME280;10913;51.992;9.228;2023-07-08T05:06:31;100628.31;;;16.70;93.91
21504;BME280;10913;51.992;9.228;2023-07-08T05:08:57;100625.47;;;16.78;93.85
21504;BME280;10913;51.992;9.228;2023-07-08T05:11:23;100633.28;;;16.84;94.36
21504;BME280;10913;51.992;9.228;2023-07-08T05:13:48;100626.03;;;16.89;93.29
21504;BME280;10913;51.992;9.228;2023-07-08T05:16:14;100621.41;;;16.96;93.72
21504;BME280;10913;51.992;9.228;2023-07-08T05:18:39;100623.88;;;17.02;92.84
21504;BME280;10913;51.992;9.228;2023-07-08T05:21:04;100619.25;;;17.08;92.42
21504;BME280;10913;51.992;9.228;2023-07-08T05:23:30;100616.41;;;17.16;92.17
21504;BME280;10913;51.992;9.228;2023-07-08T05:26:00;100614.41;;;17.22;91.41
21504;BME280;10913;51.992;9.228;2023-07-08T05:28:25;100619.50;;;17.32;91.29
21504;BME280;10913;51.992;9.228;2023-07-08T05:30:55;100616.56;;;17.39;91.01
21504;BME280;10913;51.992;9.228;2023-07-08T05:33:22;100607.41;;;17.48;90.79
21504;BME280;10913;51.992;9.228;2023-07-08T05:35:47;100612.53;;;17.55;91.04
21504;BME280;10913;51.992;9.228;2023-07-08T05:38:13;100610.50;;;17.64;91.31
21504;BME280;10913;51.992;9.228;2023-07-08T05:40:38;100616.56;;;17.70;91.99
21504;BME280;10913;51.992;9.228;2023-07-08T05:43:03;100608.38;;;17.76;92.89
21504;BME280;10913;51.992;9.228;2023-07-08T05:45:29;100609.00;;;17.84;92.44
21504;BME280;10913;51.992;9.228;2023-07-08T05:47:55;100603.47;;;17.90;92.66
21504;BME280;10913;51.992;9.228;2023-07-08T05:50:20;100606.75;;;17.99;91.43
21504;BME280;10913;51.992;9.228;2023-07-08T05:52:46;100608.25;;;18.07;91.34
21504;BME280;10913;51.992;9.228;2023-07-08T05:55:11;100609.78;;;18.16;93.01
21504;BME280;10913;51.992;9.228;2023-07-08T05:57:36;100602.41;;;18.22;92.64
21504;BME280;10913;51.992;9.228;2023-07-08T06:00:04;100603.06;;;18.29;91.68
21504;BME280;10913;51.992;9.228;2023-07-08T06:02:30;100598.41;;;18.36;90.61
21504;BME280;10913;51.992;9.228;2023-07-08T06:04:55;100602.59;;;18.43;90.31
21504;BME280;10913;51.992;9.228;2023-07-08T06:07:21;100601.47;;;18.50;90.51
21504;BME280;10913;51.992;9.228;2023-07-08T06:09:46;100603.03;;;18.57;90.88
21504;BME280;10913;51.992;9.228;2023-07-08T06:12:11;100604.53;;;18.66;92.01
21504;BME280;10913;51.992;9.228;2023-07-08T06:14:37;100601.59;;;18.73;92.38
21504;BME280;10913;51.992;9.228;2023-07-08T06:17:04;100599.50;;;18.81;91.66
21504;BME280;10913;51.992;9.228;2023-07-08T06:19:29;100598.31;;;18.90;91.49
21504;BME280;10913;51.992;9.228;2023-07-08T06:21:55;100595.34;;;18.98;90.68
21504;BME280;10913;51.992;9.228;2023-07-08T06:24:20;100595.88;;;19.07;90.40
21504;BME280;10913;51.992;9.228;2023-07-08T06:26:46;100585.72;;;19.17;90.15
21504;BME280;10913;51.992;9.228;2023-07-08T06:29:11;100592.47;;;19.27;90.23
21504;BME280;10913;51.992;9.228;2023-07-08T06:31:36;100599.22;;;19.37;90.27
21504;BME280;10913;51.992;9.228;2023-07-08T06:34:02;100590.72;;;19.49;91.05
21504;BME280;10913;51.992;9.228;2023-07-08T06:36:27;100587.56;;;19.61;92.42
21504;BME280;10913;51.992;9.228;2023-07-08T06:38:53;100589.78;;;19.74;92.14
21504;BME280;10913;51.992;9.228;2023-07-08T06:41:18;100594.72;;;19.84;91.12
21504;BME280;10913;51.992;9.228;2023-07-08T06:43:44;100590.69;;;19.96;90.24
21504;BME280;10913;51.992;9.228;2023-07-08T06:46:09;100592.84;;;20.08;89.58
21504;BME280;10913;51.992;9.228;2023-07-08T06:48:36;100591.38;;;20.21;87.96
21504;BME280;10913;51.992;9.228;2023-07-08T06:51:01;100596.16;;;20.37;86.18
21504;BME280;10913;51.992;9.228;2023-07-08T06:53:27;100583.91;;;20.51;85.33
21504;BME280;10913;51.992;9.228;2023-07-08T06:55:53;100586.78;;;20.67;84.05
21504;BME280;10913;51.992;9.228;2023-07-08T06:58:18;100581.75;;;20.80;81.47
21504;BME280;10913;51.992;9.228;2023-07-08T07:00:44;100587.47;;;20.92;81.37
21504;BME280;10913;51.992;9.228;2023-07-08T07:03:10;100581.66;;;21.02;80.00
21504;BME280;10913;51.992;9.228;2023-07-08T07:05:36;100583.72;;;21.15;80.30
21504;BME280;10913;51.992;9.228;2023-07-08T07:08:04;100579.50;;;21.30;81.01
21504;BME280;10913;51.992;9.228;2023-07-08T07:10:29;100583.34;;;21.43;82.22
21504;BME280;10913;51.992;9.228;2023-07-08T07:12:55;100583.66;;;21.56;80.15
21504;BME280;10913;51.992;9.228;2023-07-08T07:15:20;100576.88;;;21.66;79.58
21504;BME280;10913;51.992;9.228;2023-07-08T07:17:45;100570.13;;;21.76;79.79
21504;BME280;10913;51.992;9.228;2023-07-08T07:20:11;100576.78;;;21.86;78.96
21504;BME280;10913;51.992;9.228;2023-07-08T07:22:37;100573.59;;;21.97;79.48
21504;BME280;10913;51.992;9.228;2023-07-08T07:25:03;100583.91;;;22.06;78.12
21504;BME280;10913;51.992;9.228;2023-07-08T07:27:29;100582.44;;;22.18;77.91
21504;BME280;10913;51.992;9.228;2023-07-08T07:29:54;100580.00;;;22.30;77.80
21504;BME280;10913;51.992;9.228;2023-07-08T07:32:23;100578.25;;;22.47;79.04
21504;BME280;10913;51.992;9.228;2023-07-08T07:34:49;100573.91;;;22.61;79.48
21504;BME280;10913;51.992;9.228;2023-07-08T07:37:17;100578.59;;;22.75;79.49
21504;BME280;10913;51.992;9.228;2023-07-08T07:39:44;100569.63;;;22.92;80.20
21504;BME280;10913;51.992;9.228;2023-07-08T07:42:10;100565.16;;;23.08;81.44
21504;BME280;10913;51.992;9.228;2023-07-08T07:44:36;100566.69;;;23.29;81.83
21504;BME280;10913;51.992;9.228;2023-07-08T07:47:02;100562.81;;;23.51;81.82
21504;BME280;10913;51.992;9.228;2023-07-08T07:49:28;100564.41;;;23.70;78.72
21504;BME280;10913;51.992;9.228;2023-07-08T07:51:54;100568.75;;;23.89;75.76
21504;BME280;10913;51.992;9.228;2023-07-08T07:54:19;100572.91;;;24.10;75.67
21504;BME280;10913;51.992;9.228;2023-07-08T07:56:44;100577.09;;;24.31;74.52
21504;BME280;10913;51.992;9.228;2023-07-08T07:59:10;100575.22;;;24.48;70.57
21504;BME280;10913;51.992;9.228;2023-07-08T08:01:36;100571.84;;;24.58;71.10
21504;BME280;10913;51.992;9.228;2023-07-08T08:04:01;100567.38;;;24.73;71.79
21504;BME280;10913;51.992;9.228;2023-07-08T08:06:27;100571.81;;;24.88;71.89
21504;BME280;10913;51.992;9.228;2023-07-08T08:08:52;100572.81;;;25.01;72.58
21504;BME280;10913;51.992;9.228;2023-07-08T08:11:18;100573.63;;;25.18;71.90
21504;BME280;10913;51.992;9.228;2023-07-08T08:13:43;100570.06;;;25.31;72.00
21504;BME280;10913;51.992;9.228;2023-07-08T08:16:09;100571.97;;;25.44;72.22
21504;BME280;10913;51.992;9.228;2023-07-08T08:18:34;100570.41;;;25.54;70.32
21504;BME280;10913;51.992;9.228;2023-07-08T08:21:00;100571.28;;;25.68;72.10
21504;BME280;10913;51.992;9.228;2023-07-08T08:23:25;100567.28;;;25.88;72.48
21504;BME280;10913;51.992;9.228;2023-07-08T08:25:51;100576.59;;;26.11;71.62
21504;BME280;10913;51.992;9.228;2023-07-08T08:28:16;100575.50;;;26.40;68.88
21504;BME280;10913;51.992;9.228;2023-07-08T08:30:41;100567.66;;;26.63;64.64
21504;BME280;10913;51.992;9.228;2023-07-08T08:33:07;100574.75;;;26.91;65.08
21504;BME280;10913;51.992;9.228;2023-07-08T08:35:32;100561.94;;;27.18;64.26
21504;BME280;10913;51.992;9.228;2023-07-08T08:37:58;100565.28;;;27.47;65.00
21504;BME280;10913;51.992;9.228;2023-07-08T08:40:23;100564.78;;;27.78;64.32
21504;BME280;10913;51.992;9.228;2023-07-08T08:43:33;100566.09;;;28.09;60.97
21504;BME280;10913;51.992;9.228;2023-07-08T08:46:04;100566.38;;;28.30;63.39
21504;BME280;10913;51.992;9.228;2023-07-08T08:48:40;100574.56;;;28.41;63.41
21504;BME280;10913;51.992;9.228;2023-07-08T08:51:15;100571.38;;;28.48;62.10
21504;BME280;10913;51.992;9.228;2023-07-08T08:53:41;100560.78;;;28.56;61.59
21504;BME280;10913;51.992;9.228;2023-07-08T08:56:17;100563.53;;;28.67;62.02
21504;BME280;10913;51.992;9.228;2023-07-08T08:58:52;100566.69;;;28.85;62.74
21504;BME280;10913;51.992;9.228;2023-07-08T09:01:20;100569.31;;;29.08;63.68
21504;BME280;10913;51.992;9.228;2023-07-08T09:03:50;100563.66;;;29.34;62.15
21504;BME280;10913;51.992;9.228;2023-07-08T09:06:40;100563.06;;;29.53;58.46
21504;BME280;10913;51.992;9.228;2023-07-08T09:09:21;100566.00;;;29.61;58.33
21504;BME280;10913;51.992;9.228;2023-07-08T09:14:27;100566.69;;;30.07;57.31
21504;BME280;10913;51.992;9.228;2023-07-08T09:19:26;100567.91;;;30.46;55.66
21504;BME280;10913;51.992;9.228;2023-07-08T09:24:38;100555.28;;;30.45;56.61
21504;BME280;10913;51.992;9.228;2023-07-08T09:27:06;100565.63;;;30.63;56.83
21504;BME280;10913;51.992;9.228;2023-07-08T09:29:33;100559.13;;;30.75;54.16
21504;BME280;10913;51.992;9.228;2023-07-08T09:31:59;100554.84;;;30.82;54.58
21504;BME280;10913;51.992;9.228;2023-07-08T09:34:37;100552.06;;;30.93;54.39
21504;BME280;10913;51.992;9.228;2023-07-08T09:37:20;100545.34;;;30.97;53.78
21504;BME280;10913;51.992;9.228;2023-07-08T09:39:46;100546.78;;;31.01;53.55
21504;BME280;10913;51.992;9.228;2023-07-08T09:42:13;100554.44;;;31.07;54.04
21504;BME280;10913;51.992;9.228;2023-07-08T09:44:40;100551.69;;;31.07;52.48
21504;BME280;10913;51.992;9.228;2023-07-08T09:47:21;100554.44;;;31.07;52.79
21504;BME280;10913;51.992;9.228;2023-07-08T09:49:47;100540.44;;;31.01;52.31
21504;BME280;10913;51.992;9.228;2023-07-08T09:52:13;100544.00;;;31.12;53.52
21504;BME280;10913;51.992;9.228;2023-07-08T09:54:41;100545.47;;;31.16;53.42
21504;BME280;10913;51.992;9.228;2023-07-08T09:57:16;100547.38;;;31.26;52.17
21504;BME280;10913;51.992;9.228;2023-07-08T09:59:51;100549.63;;;31.21;49.69
21504;BME280;10913;51.992;9.228;2023-07-08T10:02:30;100548.09;;;31.28;48.75
21504;BME280;10913;51.992;9.228;2023-07-08T10:04:58;100546.38;;;31.27;49.42
21504;BME280;10913;51.992;9.228;2023-07-08T10:07:28;100550.72;;;31.39;49.53
21504;BME280;10913;51.992;9.228;2023-07-08T10:09:54;100546.63;;;31.64;50.95
21504;BME280;10913;51.992;9.228;2023-07-08T10:12:23;100540.38;;;31.82;49.11
21504;BME280;10913;51.992;9.228;2023-07-08T10:15:03;100545.56;;;31.76;47.73
21504;BME280;10913;51.992;9.228;2023-07-08T10:17:31;100552.44;;;31.70;45.06
21504;BME280;10913;51.992;9.228;2023-07-08T10:19:58;100547.44;;;31.75;45.21
21504;BME280;10913;51.992;9.228;2023-07-08T10:23:02;100548.50;;;31.63;45.42
21504;BME280;10913;51.992;9.228;2023-07-08T10:25:48;100548.22;;;31.57;46.28
21504;BME280;10913;51.992;9.228;2023-07-08T10:31:02;100549.38;;;31.64;47.45
21504;BME280;10913;51.992;9.228;2023-07-08T10:38:49;100540.66;;;31.79;48.24
21504;BME280;10913;51.992;9.228;2023-07-08T10:41:29;100537.50;;;31.84;47.90
21504;BME280;10913;51.992;9.228;2023-07-08T10:44:20;100544.41;;;31.78;44.06
21504;BME280;10913;51.992;9.228;2023-07-08T10:46:50;100549.59;;;31.72;44.67
21504;BME280;10913;51.992;9.228;2023-07-08T10:52:42;100538.97;;;31.98;44.57
21504;BME280;10913;51.992;9.228;2023-07-08T11:09:24;100543.88;;;32.04;43.34
21504;BME280;10913;51.992;9.228;2023-07-08T11:12:54;100543.00;;;31.94;44.29
21504;BME280;10913;51.992;9.228;2023-07-08T11:14:50;100529.94;;;32.07;44.98
21504;BME280;10913;51.992;9.228;2023-07-08T11:17:23;100532.97;;;32.13;43.69
21504;BME280;10913;51.992;9.228;2023-07-08T11:20:00;100530.22;;;32.13;43.75
21504;BME280;10913;51.992;9.228;2023-07-08T11:22:29;100530.53;;;32.20;44.08
21504;BME280;10913;51.992;9.228;2023-07-08T11:24:57;100515.13;;;32.38;45.71
21504;BME280;10913;51.992;9.228;2023-07-08T11:27:27;100515.09;;;32.58;46.26
21504;BME280;10913;51.992;9.228;2023-07-08T11:29:59;100524.03;;;32.60;44.06
21504;BME280;10913;51.992;9.228;2023-07-08T11:32:27;100521.03;;;32.43;43.76
21504;BME280;10913;51.992;9.228;2023-07-08T11:34:55;100516.28;;;32.55;44.71
21504;BME280;10913;51.992;9.228;2023-07-08T11:37:23;100516.25;;;32.65;44.13
21504;BME280;10913;51.992;9.228;2023-07-08T11:39:57;100514.53;;;32.64;43.77
21504;BME280;10913;51.992;9.228;2023-07-08T11:42:44;100511.78;;;32.64;45.75
21504;BME280;10913;51.992;9.228;2023-07-08T11:45:38;100506.75;;;32.69;43.77
21504;BME280;10913;51.992;9.228;2023-07-08T11:48:18;100509.78;;;32.66;44.01
21504;BME280;10913;51.992;9.228;2023-07-08T11:50:45;100508.19;;;32.73;43.36
21504;BME280;10913;51.992;9.228;2023-07-08T11:53:37;100502.59;;;32.74;43.46
21504;BME280;10913;51.992;9.228;2023-07-08T12:04:26;100511.31;;;32.97;41.84
21504;BME280;10913;51.992;9.228;2023-07-08T12:07:05;100500.03;;;33.00;41.85
21504;BME280;10913;51.992;9.228;2023-07-08T12:09:43;100497.13;;;33.11;43.51
21504;BME280;10913;51.992;9.228;2023-07-08T12:12:24;100484.47;;;33.10;41.34
21504;BME280;10913;51.992;9.228;2023-07-08T12:14:51;100494.09;;;33.14;41.66
21504;BME280;10913;51.992;9.228;2023-07-08T12:17:20;100491.03;;;33.17;41.28
21504;BME280;10913;51.992;9.228;2023-07-08T12:19:46;100496.50;;;33.17;43.16
21504;BME280;10913;51.992;9.228;2023-07-08T12:22:13;100494.91;;;33.25;43.71
21504;BME280;10913;51.992;9.228;2023-07-08T12:24:40;100488.16;;;33.29;41.77
21504;BME280;10913;51.992;9.228;2023-07-08T12:27:07;100484.47;;;33.38;42.63
21504;BME280;10913;51.992;9.228;2023-07-08T12:29:33;100487.97;;;33.58;45.78
21504;BME280;10913;51.992;9.228;2023-07-08T12:31:58;100491.97;;;33.63;42.21
21504;BME280;10913;51.992;9.228;2023-07-08T12:34:25;100477.94;;;33.48;42.24
21504;BME280;10913;51.992;9.228;2023-07-08T12:36:51;100480.34;;;33.34;41.09
21504;BME280;10913;51.992;9.228;2023-07-08T12:39:16;100478.34;;;33.26;41.57
21504;BME280;10913;51.992;9.228;2023-07-08T12:41:44;100469.69;;;33.31;42.38
21504;BME280;10913;51.992;9.228;2023-07-08T12:44:23;100472.69;;;33.37;41.90
21504;BME280;10913;51.992;9.228;2023-07-08T12:46:54;100471.03;;;33.44;42.86
21504;BME280;10913;51.992;9.228;2023-07-08T12:49:20;100472.06;;;33.43;41.02
21504;BME280;10913;51.992;9.228;2023-07-08T12:51:47;100470.47;;;33.41;41.94
21504;BME280;10913;51.992;9.228;2023-07-08T12:54:13;100471.88;;;33.27;41.80
21504;BME280;10913;51.992;9.228;2023-07-08T12:56:43;100472.91;;;33.16;42.95
21504;BME280;10913;51.992;9.228;2023-07-08T12:59:13;100462.56;;;33.01;42.09
21504;BME280;10913;51.992;9.228;2023-07-08T13:01:39;100466.09;;;32.93;42.27
21504;BME280;10913;51.992;9.228;2023-07-08T13:04:09;100454.50;;;32.99;43.50
21504;BME280;10913;51.992;9.228;2023-07-08T13:06:36;100470.34;;;33.05;42.38
21504;BME280;10913;51.992;9.228;2023-07-08T13:11:31;100469.69;;;33.21;42.20
21504;BME280;10913;51.992;9.228;2023-07-08T13:13:59;100462.78;;;33.27;41.33
21504;BME280;10913;51.992;9.228;2023-07-08T13:16:34;100461.06;;;33.26;42.15
21504;BME280;10913;51.992;9.228;2023-07-08T13:19:01;100450.38;;;33.22;41.95
21504;BME280;10913;51.992;9.228;2023-07-08T13:21:27;100458.44;;;33.24;41.81
21504;BME280;10913;51.992;9.228;2023-07-08T13:23:54;100453.81;;;33.34;42.53
21504;BME280;10913;51.992;9.228;2023-07-08T13:26:29;100451.78;;;33.36;43.11
21504;BME280;10913;51.992;9.228;2023-07-08T13:29:11;100464.41;;;33.47;42.42
21504;BME280;10913;51.992;9.228;2023-07-08T13:31:38;100457.94;;;33.66;44.00
21504;BME280;10913;51.992;9.228;2023-07-08T13:34:09;100455.34;;;33.64;40.62
21504;BME280;10913;51.992;9.228;2023-07-08T13:36:38;100444.22;;;33.66;41.69
21504;BME280;10913;51.992;9.228;2023-07-08T13:39:07;100443.22;;;33.67;42.56
21504;BME280;10913;51.992;9.228;2023-07-08T13:41:34;100453.63;;;33.63;41.82
21504;BME280;10913;51.992;9.228;2023-07-08T13:44:04;100457.75;;;33.49;41.76
21504;BME280;10913;51.992;9.228;2023-07-08T13:46:40;100449.38;;;33.51;43.37